Terminal Aerodrome Forecast
Issued by NWS Portland, ME

Home | Current Version | Previous Version | Text Only | Print | Product List | Glossary On
Versions: 1 2 3 4 5 6 7 8 9 10 11 12 13 14 15 16
000
FTUS41 KGYX 241121
TAFCON
TAF
KCON 241121Z 2412/2512 18006KT P6SM BKN050 OVC100
     FM241700 19008KT 5SM -SN BKN025 OVC050
      TEMPO 2418/2421 2SM -SN BKN015 OVC025
     FM242100 22008KT P6SM -SHRA BKN015 OVC025
     FM250000 VRB04KT P6SM BKN025 OVC050=

USA.gov is the U.S. government's official web portal to all federal, state and local government web resources and services.